createdAt,value
2017-12-05T00:00:21.177Z,11.98
2017-12-05T00:02:49.338Z,8.95
2017-12-05T00:05:17.717Z,9.07
2017-12-05T00:07:45.849Z,10.25
2017-12-05T00:10:13.978Z,11.60
2017-12-05T00:12:42.149Z,10.75
2017-12-05T00:15:10.300Z,13.88
2017-12-05T00:17:38.460Z,12.43
2017-12-05T00:20:06.744Z,16.55
2017-12-05T00:22:34.933Z,11.57
2017-12-05T00:25:03.032Z,10.98
2017-12-05T00:27:31.916Z,7.85
2017-12-05T00:30:00.898Z,11.60
2017-12-05T00:32:29.085Z,10.05
2017-12-05T00:34:57.987Z,10.00
2017-12-05T00:37:26.184Z,13.18
2017-12-05T00:39:54.295Z,9.30
2017-12-05T00:42:22.452Z,14.85
2017-12-05T00:44:50.593Z,9.75
2017-12-05T00:47:18.877Z,12.00
2017-12-05T00:49:47.015Z,11.35
2017-12-05T00:52:15.916Z,11.50
2017-12-05T00:54:44.823Z,10.75
2017-12-05T00:57:12.967Z,13.55
2017-12-05T00:59:41.121Z,9.30
2017-12-05T01:02:09.249Z,14.40
2017-12-05T01:04:37.536Z,11.48
2017-12-05T01:07:05.681Z,10.55
2017-12-05T01:09:34.608Z,9.50
2017-12-05T01:12:02.748Z,11.40
2017-12-05T01:14:31.669Z,10.10
2017-12-05T01:16:59.820Z,11.55
2017-12-05T01:19:28.084Z,12.48
2017-12-05T01:21:56.984Z,11.25
2017-12-05T01:24:25.145Z,9.40
2017-12-05T01:26:54.039Z,11.98
2017-12-05T01:29:22.943Z,9.50
2017-12-05T01:31:51.105Z,10.63
2017-12-05T01:34:19.991Z,13.68
2017-12-05T01:36:49.060Z,11.68
2017-12-05T01:39:17.193Z,12.77
2017-12-05T01:41:45.335Z,12.55
2017-12-05T01:44:13.504Z,13.85
2017-12-05T01:46:42.397Z,12.15
2017-12-05T01:49:10.540Z,12.18
2017-12-05T01:51:38.677Z,9.20
2017-12-05T01:54:06.999Z,10.43
2017-12-05T01:56:35.123Z,9.27
2017-12-05T01:59:04.019Z,12.32
2017-12-05T02:01:32.176Z,11.90
2017-12-05T02:04:00.308Z,9.65
2017-12-05T02:06:28.493Z,8.98
2017-12-05T02:08:57.403Z,8.63
2017-12-05T02:11:25.532Z,9.05
2017-12-05T02:13:53.801Z,10.05
2017-12-05T02:16:21.939Z,10.60
2017-12-05T02:18:50.104Z,9.82
2017-12-05T02:21:18.248Z,9.48
2017-12-05T02:23:46.399Z,9.75
2017-12-05T02:26:14.544Z,9.07
2017-12-05T02:28:42.660Z,9.82
2017-12-05T02:31:10.948Z,8.23
2017-12-05T02:33:39.848Z,9.52
2017-12-05T02:36:08.759Z,9.65
2017-12-05T02:38:36.904Z,7.87
2017-12-05T02:41:05.855Z,13.23
2017-12-05T02:43:33.990Z,8.38
2017-12-05T02:46:02.121Z,14.00
2017-12-05T02:48:30.405Z,9.57
2017-12-05T02:50:58.565Z,14.38
2017-12-05T02:53:26.691Z,9.65
2017-12-05T02:55:54.861Z,10.02
2017-12-05T02:58:22.996Z,14.00
2017-12-05T03:00:51.157Z,10.32
2017-12-05T03:03:19.288Z,10.25
2017-12-05T03:05:48.192Z,11.00
2017-12-05T03:08:16.474Z,13.20
2017-12-05T03:10:44.596Z,10.88
2017-12-05T03:13:13.541Z,10.00
2017-12-05T03:15:41.674Z,11.48
2017-12-05T03:18:09.856Z,9.18
2017-12-05T03:20:38.017Z,11.10
2017-12-05T03:23:06.912Z,12.50
2017-12-05T03:25:35.196Z,10.02
2017-12-05T03:28:03.393Z,11.30
2017-12-05T03:30:31.517Z,9.27
2017-12-05T03:33:00.440Z,12.80
2017-12-05T03:35:29.444Z,14.65
2017-12-05T03:37:57.567Z,9.30
2017-12-05T03:40:25.696Z,9.70
2017-12-05T03:42:54.013Z,12.23
2017-12-05T03:45:22.135Z,11.88
2017-12-05T03:47:50.508Z,9.82
2017-12-05T03:50:19.411Z,10.30
2017-12-05T03:52:47.549Z,8.05
2017-12-05T03:55:16.465Z,10.05
2017-12-05T03:57:44.592Z,10.98
2017-12-05T04:00:12.913Z,10.20
2017-12-05T04:02:41.660Z,10.13
2017-12-05T04:05:09.792Z,10.10
2017-12-05T04:07:37.950Z,8.23
2017-12-05T04:10:06.083Z,9.10
2017-12-05T04:12:35.021Z,8.40
2017-12-05T04:15:03.168Z,9.40
2017-12-05T04:17:31.320Z,11.27
2017-12-05T04:20:00.353Z,11.80
2017-12-05T04:22:28.485Z,10.05
2017-12-05T04:24:56.641Z,10.75
2017-12-05T04:27:24.770Z,14.25
2017-12-05T04:29:52.904Z,8.35
2017-12-05T04:32:21.081Z,8.98
2017-12-05T04:34:49.987Z,13.68
2017-12-05T04:37:18.889Z,7.22
2017-12-05T04:39:47.045Z,10.25
2017-12-05T04:42:15.956Z,10.52
2017-12-05T04:44:44.077Z,13.07
2017-12-05T04:47:12.249Z,9.45
2017-12-05T04:49:40.378Z,12.65
2017-12-05T04:52:08.529Z,12.45
2017-12-05T04:54:37.444Z,13.88
2017-12-05T04:57:05.709Z,11.82
2017-12-05T04:59:33.837Z,10.75
2017-12-05T05:02:01.965Z,12.25
2017-12-05T05:04:30.127Z,14.02
2017-12-05T05:06:58.267Z,12.75
2017-12-05T05:09:26.592Z,11.23
2017-12-05T05:11:54.723Z,15.02
2017-12-05T05:14:22.887Z,13.93
2017-12-05T05:16:51.068Z,12.10
2017-12-05T05:19:19.211Z,10.98
2017-12-05T05:21:47.362Z,12.75
2017-12-05T05:24:15.491Z,16.40
2017-12-05T05:26:44.462Z,13.15
2017-12-05T05:29:12.663Z,16.77
2017-12-05T05:31:40.751Z,15.48
2017-12-05T05:34:08.935Z,16.67
2017-12-05T05:36:37.074Z,16.20
2017-12-05T05:39:05.236Z,27.83
2017-12-05T05:41:33.375Z,20.42
2017-12-05T05:44:01.614Z,20.10
2017-12-05T05:46:30.520Z,13.52
2017-12-05T05:48:58.678Z,20.00
2017-12-05T05:51:28.196Z,16.77
2017-12-05T05:53:56.335Z,15.77
2017-12-05T05:56:24.503Z,13.35
2017-12-05T05:58:52.626Z,12.95
2017-12-05T06:01:28.797Z,16.35
2017-12-05T06:04:01.140Z,16.50
2017-12-05T06:06:30.068Z,14.77
2017-12-05T06:08:58.204Z,15.25
2017-12-05T06:11:26.343Z,13.85
2017-12-05T06:13:54.525Z,15.68
2017-12-05T06:16:22.646Z,15.75
2017-12-05T06:18:50.927Z,12.20
2017-12-05T06:21:19.060Z,14.95
2017-12-05T06:23:48.000Z,16.37
2017-12-05T06:26:16.136Z,13.20
2017-12-05T06:28:44.275Z,14.20
2017-12-05T06:31:12.443Z,13.05
2017-12-05T06:33:40.588Z,16.73
2017-12-05T06:36:08.869Z,14.05
2017-12-05T06:38:37.010Z,17.15
2017-12-05T06:41:05.180Z,15.98
2017-12-05T06:43:33.312Z,16.33
2017-12-05T06:46:01.484Z,17.27
2017-12-05T06:48:29.648Z,16.52
2017-12-05T06:50:57.890Z,17.80
2017-12-05T06:53:26.188Z,19.95
2017-12-05T06:55:54.344Z,14.75
2017-12-05T06:58:22.497Z,16.05
2017-12-05T07:00:50.628Z,15.68
2017-12-05T07:03:18.803Z,17.65
2017-12-05T07:05:46.963Z,18.85
2017-12-05T07:08:15.102Z,18.00
2017-12-05T07:10:43.383Z,17.42
2017-12-05T07:13:11.518Z,24.52
2017-12-05T07:15:39.688Z,18.73
2017-12-05T07:18:07.847Z,21.00
2017-12-05T07:20:35.988Z,17.20
2017-12-05T07:23:04.144Z,24.02
2017-12-05T07:25:32.291Z,19.17
2017-12-05T07:28:00.549Z,17.75
2017-12-05T07:30:28.929Z,19.05
2017-12-05T07:32:57.080Z,19.02
2017-12-05T07:35:25.228Z,14.82
2017-12-05T07:37:53.388Z,16.27
2017-12-05T07:40:21.540Z,16.87
2017-12-05T07:42:50.444Z,18.00
2017-12-05T07:45:18.728Z,15.60
2017-12-05T07:47:47.440Z,16.40
2017-12-05T07:50:15.608Z,14.87
2017-12-05T07:52:44.536Z,17.73
2017-12-05T07:55:12.705Z,19.02
2017-12-05T07:57:40.855Z,19.75
2017-12-05T08:00:08.989Z,22.08
2017-12-05T08:02:38.551Z,16.77
2017-12-05T08:05:06.693Z,16.52
2017-12-05T08:07:34.868Z,20.05
2017-12-05T08:10:03.010Z,15.93
2017-12-05T08:12:31.907Z,19.30
2017-12-05T08:15:00.090Z,18.75
2017-12-05T08:17:28.246Z,20.42
2017-12-05T08:19:57.270Z,24.73
2017-12-05T08:22:25.416Z,20.45
2017-12-05T08:24:54.317Z,23.98
2017-12-05T08:27:22.454Z,20.30
2017-12-05T08:29:50.596Z,20.58
2017-12-05T08:32:18.773Z,18.60
2017-12-05T08:34:47.042Z,18.08
2017-12-05T08:37:15.173Z,17.25
2017-12-05T08:39:43.452Z,18.17
2017-12-05T08:42:12.412Z,20.65
2017-12-05T08:44:40.560Z,20.58
2017-12-05T08:47:08.732Z,18.85
2017-12-05T08:49:36.910Z,23.92
2017-12-05T08:52:05.058Z,18.92
2017-12-05T08:54:34.111Z,18.80
2017-12-05T08:57:02.259Z,19.70
2017-12-05T08:59:30.424Z,18.98
2017-12-05T09:01:58.631Z,21.23
2017-12-05T09:04:27.553Z,18.23
2017-12-05T09:06:55.718Z,24.73
2017-12-05T09:09:24.007Z,18.08
2017-12-05T09:11:52.214Z,15.30
2017-12-05T09:14:20.350Z,17.05
2017-12-05T09:16:48.529Z,16.90
2017-12-05T09:19:16.704Z,14.70
2017-12-05T09:21:44.839Z,13.90
2017-12-05T09:24:13.012Z,15.95
2017-12-05T09:26:41.160Z,19.35
2017-12-05T09:29:09.305Z,27.52
2017-12-05T09:31:37.588Z,15.85
2017-12-05T09:34:05.726Z,18.65
2017-12-05T09:36:34.627Z,13.35
2017-12-05T09:39:02.792Z,18.40
2017-12-05T09:41:31.692Z,15.68
2017-12-05T09:43:59.856Z,11.00
2017-12-05T09:46:28.758Z,9.15
2017-12-05T09:48:57.040Z,8.63
2017-12-05T09:51:25.178Z,7.32
2017-12-05T09:53:53.291Z,7.30
2017-12-05T09:56:22.235Z,8.48
2017-12-05T09:58:50.368Z,6.30
2017-12-05T10:01:18.496Z,7.70
2017-12-05T10:03:49.494Z,7.10
2017-12-05T10:06:17.764Z,6.65
2017-12-05T10:08:45.923Z,6.93
2017-12-05T10:11:14.061Z,8.05
2017-12-05T10:13:43.005Z,8.50
2017-12-05T10:16:11.135Z,7.55
2017-12-05T10:18:40.363Z,8.90
2017-12-05T10:21:08.496Z,8.95
2017-12-05T10:23:37.397Z,16.73
2017-12-05T10:26:05.572Z,11.32
2017-12-05T10:28:33.701Z,18.83
2017-12-05T10:31:01.840Z,10.20
2017-12-05T10:33:30.013Z,11.57
2017-12-05T10:35:58.174Z,6.90
2017-12-05T10:38:27.162Z,8.05
2017-12-05T10:40:56.588Z,6.60
2017-12-05T10:43:24.749Z,7.93
2017-12-05T10:45:52.880Z,6.60
2017-12-05T10:48:21.043Z,7.28
2017-12-05T10:50:49.160Z,7.78
2017-12-05T10:53:17.329Z,7.80
2017-12-05T10:55:45.483Z,8.05
2017-12-05T10:58:13.611Z,9.48
2017-12-05T11:00:41.885Z,9.18
2017-12-05T11:03:10.016Z,7.97
2017-12-05T11:05:38.943Z,9.32
2017-12-05T11:08:07.104Z,10.23
2017-12-05T11:10:35.399Z,10.55
2017-12-05T11:13:04.275Z,9.40
2017-12-05T11:15:32.408Z,10.35
2017-12-05T11:18:01.417Z,9.48
2017-12-05T11:20:30.308Z,9.65
2017-12-05T11:22:59.249Z,8.77
2017-12-05T11:25:27.381Z,9.20
2017-12-05T11:27:55.511Z,10.65
2017-12-05T11:30:23.680Z,10.80
2017-12-05T11:32:51.828Z,10.45
2017-12-05T11:35:20.079Z,10.63
2017-12-05T11:37:48.212Z,9.50
2017-12-05T11:40:16.378Z,10.88
2017-12-05T11:42:44.513Z,10.35
2017-12-05T11:45:12.737Z,11.80
2017-12-05T11:47:40.880Z,11.32
2017-12-05T11:50:09.036Z,10.50
2017-12-05T11:52:37.186Z,10.40
2017-12-05T11:55:05.317Z,11.55
2017-12-05T11:57:33.492Z,9.68
2017-12-05T12:00:01.670Z,12.30
2017-12-05T12:02:29.827Z,11.80
2017-12-05T12:04:59.103Z,8.82
2017-12-05T12:07:27.256Z,10.00
2017-12-05T12:09:56.157Z,10.60
2017-12-05T12:12:24.275Z,9.60
2017-12-05T12:14:52.421Z,10.43
2017-12-05T12:17:20.629Z,10.70
2017-12-05T12:19:48.758Z,10.38
2017-12-05T12:22:16.968Z,11.10
2017-12-05T12:24:45.093Z,10.70
2017-12-05T12:27:13.255Z,10.02
2017-12-05T12:29:41.385Z,11.45
2017-12-05T12:32:09.532Z,9.35
2017-12-05T12:34:37.691Z,10.88
2017-12-05T12:37:05.968Z,10.35
2017-12-05T12:39:34.140Z,12.23
2017-12-05T12:42:10.060Z,11.10
2017-12-05T12:44:46.353Z,10.73
2017-12-05T12:47:22.173Z,11.63
2017-12-05T12:49:50.325Z,14.00
2017-12-05T12:52:18.462Z,11.48
2017-12-05T12:54:46.705Z,11.25
2017-12-05T12:57:15.656Z,11.93
2017-12-05T12:59:43.827Z,10.98
2017-12-05T13:02:11.956Z,10.80
2017-12-05T13:04:40.100Z,9.18
2017-12-05T13:07:08.248Z,15.85
2017-12-05T13:09:36.392Z,10.38
2017-12-05T13:12:04.588Z,10.90
2017-12-05T13:14:32.720Z,12.02
2017-12-05T13:17:01.680Z,9.07
2017-12-05T13:19:29.821Z,11.70
2017-12-05T13:21:57.965Z,11.77
2017-12-05T13:24:26.246Z,8.82
2017-12-05T13:26:54.455Z,8.57
2017-12-05T13:29:22.593Z,10.77
2017-12-05T13:31:50.731Z,9.35
2017-12-05T13:34:18.880Z,8.70
2017-12-05T13:36:47.025Z,12.37
2017-12-05T13:39:15.186Z,10.55
2017-12-05T13:41:43.322Z,10.38
2017-12-05T13:44:11.601Z,10.20
2017-12-05T13:46:39.777Z,10.60
2017-12-05T13:49:07.920Z,14.13
2017-12-05T13:51:36.085Z,11.63
2017-12-05T13:54:04.229Z,8.77
2017-12-05T13:56:33.220Z,9.32
2017-12-05T13:59:02.148Z,8.68
2017-12-05T14:01:30.282Z,9.05
2017-12-05T14:03:58.611Z,9.63
2017-12-05T14:06:26.743Z,9.65
2017-12-05T14:08:54.882Z,10.18
2017-12-05T14:11:23.049Z,8.80
2017-12-05T14:13:51.174Z,9.70
2017-12-05T14:16:19.322Z,9.80
2017-12-05T14:18:48.204Z,9.88
2017-12-05T14:21:17.261Z,8.82
2017-12-05T14:23:45.392Z,8.80
2017-12-05T14:26:13.545Z,8.95
2017-12-05T14:28:42.477Z,11.25
2017-12-05T14:31:10.613Z,8.63
2017-12-05T14:33:38.810Z,10.20
2017-12-05T14:36:06.932Z,9.73
2017-12-05T14:38:35.241Z,8.38
2017-12-05T14:41:03.371Z,8.63
2017-12-05T14:43:31.507Z,9.40
2017-12-05T14:45:59.666Z,9.30
2017-12-05T14:48:27.806Z,14.77
2017-12-05T14:50:55.977Z,13.55
2017-12-05T14:53:24.115Z,13.10
2017-12-05T14:55:52.270Z,12.82
2017-12-05T14:58:28.337Z,11.88
2017-12-05T15:00:56.572Z,12.10
2017-12-05T15:03:25.508Z,18.37
2017-12-05T15:05:53.664Z,15.52
2017-12-05T15:08:21.811Z,12.00
2017-12-05T15:10:49.998Z,19.45
2017-12-05T15:13:18.901Z,11.15
2017-12-05T15:15:47.073Z,16.42
2017-12-05T15:18:15.257Z,9.73
2017-12-05T15:20:43.423Z,17.65
2017-12-05T15:23:12.352Z,12.40
2017-12-05T15:25:40.482Z,9.13
2017-12-05T15:28:08.660Z,11.68
2017-12-05T15:30:36.796Z,9.23
2017-12-05T15:33:04.957Z,10.10
2017-12-05T15:35:33.251Z,12.18
2017-12-05T15:38:02.150Z,10.95
2017-12-05T15:40:31.112Z,12.57
2017-12-05T15:42:59.266Z,12.77
2017-12-05T15:45:27.422Z,13.65
2017-12-05T15:47:55.626Z,11.30
2017-12-05T15:50:23.780Z,15.90
2017-12-05T15:52:52.109Z,10.48
2017-12-05T15:55:20.249Z,10.52
2017-12-05T15:57:48.400Z,9.65
2017-12-05T16:00:16.556Z,8.90
2017-12-05T16:02:44.693Z,10.15
2017-12-05T16:05:12.864Z,14.82
2017-12-05T16:07:41.002Z,11.10
2017-12-05T16:10:09.293Z,12.52
2017-12-05T16:12:37.437Z,15.77
2017-12-05T16:15:05.582Z,10.55
2017-12-05T16:17:33.767Z,12.70
2017-12-05T16:20:01.941Z,11.80
2017-12-05T16:22:30.125Z,11.82
2017-12-05T16:24:58.356Z,13.25
2017-12-05T16:33:38.851Z,10.73
2017-12-05T16:36:07.148Z,15.40
2017-12-05T16:38:36.097Z,13.15
2017-12-05T16:41:04.220Z,12.85
2017-12-05T16:43:32.417Z,12.43
2017-12-05T16:46:01.446Z,15.00
2017-12-05T16:48:29.682Z,11.70
2017-12-05T16:50:57.834Z,11.80
2017-12-05T16:53:26.794Z,11.93
2017-12-05T16:55:54.936Z,13.30
2017-12-05T16:58:24.875Z,12.65
2017-12-05T17:00:53.047Z,14.87
2017-12-05T17:03:21.189Z,11.07
2017-12-05T17:05:49.397Z,12.18
2017-12-05T17:08:17.547Z,12.90
2017-12-05T17:10:45.681Z,16.00
2017-12-05T17:13:14.002Z,13.55
2017-12-05T17:15:42.160Z,12.43
2017-12-05T17:18:10.286Z,12.63
2017-12-05T17:20:39.260Z,14.05
2017-12-05T17:23:07.400Z,14.23
2017-12-05T17:25:35.649Z,14.73
2017-12-05T17:28:04.540Z,13.25
2017-12-05T17:30:33.456Z,14.13
2017-12-05T17:33:01.623Z,14.27
2017-12-05T17:35:29.786Z,12.50
2017-12-05T17:37:57.965Z,14.45
2017-12-05T17:40:26.103Z,14.38
2017-12-05T17:42:54.325Z,13.38
2017-12-05T17:45:22.472Z,14.38
2017-12-05T17:47:51.375Z,15.52
2017-12-05T17:50:19.668Z,15.48
2017-12-05T17:52:47.826Z,23.55
2017-12-05T17:55:15.985Z,20.88
2017-12-05T17:57:44.932Z,16.25
2017-12-05T18:00:13.091Z,17.80
2017-12-05T18:02:41.287Z,25.05
2017-12-05T18:05:09.419Z,16.73
2017-12-05T18:07:37.713Z,22.65
2017-12-05T18:10:05.876Z,16.58
2017-12-05T18:12:34.082Z,16.50
2017-12-05T18:15:02.233Z,16.90
2017-12-05T18:17:30.369Z,16.75
2017-12-05T18:19:58.545Z,21.67
2017-12-05T18:22:27.446Z,18.02
2017-12-05T18:25:03.447Z,18.45
2017-12-05T18:27:35.823Z,20.67
2017-12-05T18:30:03.982Z,18.80
2017-12-05T18:32:32.177Z,20.50
2017-12-05T18:35:00.318Z,16.48
2017-12-05T18:37:28.529Z,19.85
2017-12-05T18:39:56.669Z,16.58
2017-12-05T18:42:24.831Z,13.35
2017-12-05T18:44:53.188Z,13.77
2017-12-05T18:47:22.097Z,16.90
2017-12-05T18:49:50.296Z,20.52
2017-12-05T18:52:18.456Z,12.98
2017-12-05T18:54:46.606Z,15.07
2017-12-05T18:57:14.794Z,15.88
2017-12-05T18:59:42.955Z,16.55
2017-12-05T19:02:11.316Z,15.80
2017-12-05T19:04:39.493Z,15.05
2017-12-05T19:07:07.696Z,16.55
2017-12-05T19:09:35.905Z,15.10
2017-12-05T19:12:04.045Z,17.65
2017-12-05T19:14:32.197Z,14.35
2017-12-05T19:17:00.387Z,15.98
2017-12-05T19:19:28.608Z,16.60
2017-12-05T19:21:57.307Z,17.12
2017-12-05T19:24:25.471Z,16.67
2017-12-05T19:26:53.639Z,14.02
2017-12-05T19:29:26.455Z,16.30
2017-12-05T19:31:59.210Z,16.30
2017-12-05T19:34:33.602Z,15.77
2017-12-05T19:37:01.759Z,17.12
2017-12-05T19:39:32.418Z,15.15
2017-12-05T19:42:03.390Z,16.90
2017-12-05T19:44:31.669Z,23.58
2017-12-05T19:46:59.895Z,16.30
2017-12-05T19:49:28.045Z,18.00
2017-12-05T19:51:56.390Z,17.35
2017-12-05T19:54:26.497Z,20.37
2017-12-05T19:56:55.805Z,17.42
2017-12-05T19:59:28.614Z,19.15
2017-12-05T20:01:57.165Z,15.18
2017-12-05T20:04:25.700Z,18.60
2017-12-05T20:06:54.190Z,17.00
2017-12-05T20:09:33.055Z,19.10
2017-12-05T20:12:15.936Z,17.33
2017-12-05T20:14:45.362Z,15.93
2017-12-05T20:17:14.557Z,17.25
2017-12-05T20:19:44.319Z,17.87
2017-12-05T20:22:15.119Z,17.77
2017-12-05T20:24:43.355Z,17.40
2017-12-05T20:27:11.666Z,18.10
2017-12-05T20:29:39.858Z,18.30
2017-12-05T20:32:08.188Z,14.50
2017-12-05T20:34:36.376Z,16.73
2017-12-05T20:37:04.572Z,18.70
2017-12-05T20:39:33.744Z,17.62
2017-12-05T20:42:02.190Z,16.70
2017-12-05T20:44:30.624Z,17.20
2017-12-05T20:46:59.229Z,14.93
2017-12-05T20:49:27.686Z,17.37
2017-12-05T20:51:56.133Z,16.77
2017-12-05T20:54:24.596Z,18.12
2017-12-05T20:56:53.058Z,17.30
2017-12-05T20:59:21.557Z,15.88
2017-12-05T21:01:50.019Z,16.30
2017-12-05T21:04:18.497Z,16.00
2017-12-05T21:06:47.738Z,17.55
2017-12-05T21:09:16.148Z,17.95
2017-12-05T21:11:45.409Z,16.80
2017-12-05T21:14:13.878Z,19.85
2017-12-05T21:16:42.425Z,19.30
2017-12-05T21:19:10.877Z,18.35
2017-12-05T21:21:40.076Z,17.35
2017-12-05T21:24:09.454Z,16.75
2017-12-05T21:26:37.920Z,18.45
2017-12-05T21:29:06.418Z,18.17
2017-12-05T21:31:34.863Z,18.23
2017-12-05T21:34:03.363Z,17.92
2017-12-05T21:36:31.799Z,17.85
2017-12-05T21:39:01.231Z,18.85
2017-12-05T21:41:29.557Z,16.35
2017-12-05T21:43:57.857Z,16.92
2017-12-05T21:46:26.920Z,17.50
2017-12-05T21:48:55.167Z,16.80
2017-12-05T21:51:23.380Z,17.90
2017-12-05T21:53:51.549Z,15.32
2017-12-05T21:56:19.851Z,15.45
2017-12-05T21:58:47.991Z,13.57
2017-12-05T22:01:16.140Z,15.45
2017-12-05T22:03:44.312Z,15.02
2017-12-05T22:06:12.453Z,12.95
2017-12-05T22:08:41.393Z,13.23
2017-12-05T22:11:09.550Z,13.68
2017-12-05T22:13:37.792Z,12.65
2017-12-05T22:16:06.765Z,14.10
2017-12-05T22:18:34.872Z,13.65
2017-12-05T22:21:03.020Z,16.50
2017-12-05T22:23:31.966Z,14.02
2017-12-05T22:26:00.132Z,12.90
2017-12-05T22:28:28.289Z,13.55
2017-12-05T22:30:56.596Z,12.55
2017-12-05T22:33:24.741Z,14.30
2017-12-05T22:35:52.900Z,12.73
2017-12-05T22:38:21.088Z,12.93
2017-12-05T22:40:49.230Z,13.15
2017-12-05T22:43:17.407Z,12.50
2017-12-05T22:45:45.561Z,12.43
2017-12-05T22:48:16.891Z,16.10
2017-12-05T22:50:45.033Z,11.93
2017-12-05T22:53:13.165Z,13.95
2017-12-05T22:55:48.668Z,12.75
2017-12-05T22:58:24.008Z,14.50
2017-12-05T23:00:52.161Z,15.98
2017-12-05T23:03:20.301Z,14.52
2017-12-05T23:05:48.600Z,13.18
2017-12-05T23:08:16.749Z,12.80
2017-12-05T23:10:44.903Z,12.98
2017-12-05T23:13:13.059Z,13.65
2017-12-05T23:15:41.224Z,15.55
2017-12-05T23:18:09.369Z,13.65
2017-12-05T23:20:37.550Z,12.70
2017-12-05T23:23:05.681Z,13.13
2017-12-05T23:25:33.829Z,14.27
2017-12-05T23:28:01.975Z,12.90
2017-12-05T23:30:30.129Z,14.02
2017-12-05T23:32:58.277Z,13.20
2017-12-05T23:35:26.441Z,11.57
2017-12-05T23:37:54.585Z,11.82
2017-12-05T23:40:22.861Z,12.02
2017-12-05T23:42:51.061Z,11.45
2017-12-05T23:45:19.196Z,13.60
2017-12-05T23:47:47.364Z,13.48
2017-12-05T23:50:15.504Z,11.57
2017-12-05T23:52:44.444Z,11.27
2017-12-05T23:55:12.586Z,12.35
2017-12-05T23:57:40.731Z,11.30
